sensor_id;sensor_type;location;lat;lon;timestamp;P1;durP1;ratioP1;P2;durP2;ratioP2
25079;SDS011;13071;48.868;9.996;2023-03-23T00:00:01;3.28;;;1.83;;
25079;SDS011;13071;48.868;9.996;2023-03-23T00:02:30;1.92;;;1.65;;
25079;SDS011;13071;48.868;9.996;2023-03-23T00:05:00;2.60;;;1.83;;
25079;SDS011;13071;48.868;9.996;2023-03-23T00:07:28;1.73;;;1.63;;
25079;SDS011;13071;48.868;9.996;2023-03-23T00:09:56;3.90;;;1.85;;
25079;SDS011;13071;48.868;9.996;2023-03-23T00:12:24;5.10;;;2.00;;
25079;SDS011;13071;48.868;9.996;2023-03-23T00:14:58;2.67;;;1.70;;
25079;SDS011;13071;48.868;9.996;2023-03-23T00:17:25;2.10;;;1.80;;
25079;SDS011;13071;48.868;9.996;2023-03-23T00:19:52;3.53;;;1.90;;
25079;SDS011;13071;48.868;9.996;2023-03-23T00:22:19;3.20;;;1.90;;
25079;SDS011;13071;48.868;9.996;2023-03-23T00:24:46;2.20;;;1.75;;
25079;SDS011;13071;48.868;9.996;2023-03-23T00:27:16;1.83;;;1.70;;
25079;SDS011;13071;48.868;9.996;2023-03-23T00:29:43;2.40;;;1.80;;
25079;SDS011;13071;48.868;9.996;2023-03-23T00:32:11;3.65;;;1.80;;
25079;SDS011;13071;48.868;9.996;2023-03-23T00:34:39;2.30;;;1.73;;
25079;SDS011;13071;48.868;9.996;2023-03-23T00:37:08;3.13;;;1.80;;
25079;SDS011;13071;48.868;9.996;2023-03-23T00:39:35;2.05;;;1.52;;
25079;SDS011;13071;48.868;9.996;2023-03-23T00:42:02;1.65;;;1.55;;
25079;SDS011;13071;48.868;9.996;2023-03-23T00:44:31;1.95;;;1.77;;
25079;SDS011;13071;48.868;9.996;2023-03-23T00:47:00;2.45;;;1.77;;
25079;SDS011;13071;48.868;9.996;2023-03-23T00:49:27;3.30;;;1.65;;
25079;SDS011;13071;48.868;9.996;2023-03-23T00:51:54;1.95;;;1.60;;
25079;SDS011;13071;48.868;9.996;2023-03-23T00:54:22;2.42;;;1.90;;
25079;SDS011;13071;48.868;9.996;2023-03-23T00:56:50;1.73;;;1.63;;
25079;SDS011;13071;48.868;9.996;2023-03-23T00:59:17;2.10;;;1.80;;
25079;SDS011;13071;48.868;9.996;2023-03-23T01:01:45;2.17;;;1.60;;
25079;SDS011;13071;48.868;9.996;2023-03-23T01:04:12;2.03;;;1.70;;
25079;SDS011;13071;48.868;9.996;2023-03-23T01:06:40;1.77;;;1.67;;
25079;SDS011;13071;48.868;9.996;2023-03-23T01:09:09;1.58;;;1.48;;
25079;SDS011;13071;48.868;9.996;2023-03-23T01:11:39;3.10;;;1.50;;
25079;SDS011;13071;48.868;9.996;2023-03-23T01:14:06;2.75;;;1.85;;
25079;SDS011;13071;48.868;9.996;2023-03-23T01:16:33;1.52;;;1.42;;
25079;SDS011;13071;48.868;9.996;2023-03-23T01:19:01;1.83;;;1.73;;
25079;SDS011;13071;48.868;9.996;2023-03-23T01:21:27;2.10;;;1.60;;
25079;SDS011;13071;48.868;9.996;2023-03-23T01:23:54;2.20;;;1.70;;
25079;SDS011;13071;48.868;9.996;2023-03-23T01:26:22;2.05;;;1.60;;
25079;SDS011;13071;48.868;9.996;2023-03-23T01:28:50;1.65;;;1.50;;
25079;SDS011;13071;48.868;9.996;2023-03-23T01:31:17;3.22;;;1.92;;
25079;SDS011;13071;48.868;9.996;2023-03-23T01:33:45;3.88;;;1.80;;
25079;SDS011;13071;48.868;9.996;2023-03-23T01:36:14;1.63;;;1.52;;
25079;SDS011;13071;48.868;9.996;2023-03-23T01:38:42;4.97;;;1.88;;
25079;SDS011;13071;48.868;9.996;2023-03-23T01:41:09;2.20;;;1.77;;
25079;SDS011;13071;48.868;9.996;2023-03-23T01:43:36;4.32;;;1.88;;
25079;SDS011;13071;48.868;9.996;2023-03-23T01:46:18;3.80;;;1.90;;
25079;SDS011;13071;48.868;9.996;2023-03-23T01:48:47;2.38;;;1.85;;
25079;SDS011;13071;48.868;9.996;2023-03-23T01:51:17;2.33;;;1.85;;
25079;SDS011;13071;48.868;9.996;2023-03-23T01:53:46;3.10;;;2.00;;
25079;SDS011;13071;48.868;9.996;2023-03-23T01:56:19;3.95;;;1.67;;
25079;SDS011;13071;48.868;9.996;2023-03-23T01:58:50;2.38;;;2.00;;
25079;SDS011;13071;48.868;9.996;2023-03-23T02:01:17;3.15;;;1.73;;
25079;SDS011;13071;48.868;9.996;2023-03-23T02:03:46;2.53;;;1.60;;
25079;SDS011;13071;48.868;9.996;2023-03-23T02:06:14;3.22;;;1.92;;
25079;SDS011;13071;48.868;9.996;2023-03-23T02:08:42;2.08;;;1.80;;
25079;SDS011;13071;48.868;9.996;2023-03-23T02:11:12;3.28;;;1.90;;
25079;SDS011;13071;48.868;9.996;2023-03-23T02:13:40;3.80;;;2.08;;
25079;SDS011;13071;48.868;9.996;2023-03-23T02:16:08;2.20;;;2.00;;
25079;SDS011;13071;48.868;9.996;2023-03-23T02:18:52;4.68;;;2.50;;
25079;SDS011;13071;48.868;9.996;2023-03-23T02:21:27;3.63;;;2.22;;
25079;SDS011;13071;48.868;9.996;2023-03-23T02:24:25;2.63;;;2.10;;
25079;SDS011;13071;48.868;9.996;2023-03-23T02:27:04;4.82;;;2.15;;
25079;SDS011;13071;48.868;9.996;2023-03-23T02:32:38;2.92;;;1.90;;
25079;SDS011;13071;48.868;9.996;2023-03-23T02:35:27;3.58;;;1.60;;
25079;SDS011;13071;48.868;9.996;2023-03-23T02:37:58;3.08;;;2.15;;
25079;SDS011;13071;48.868;9.996;2023-03-23T02:40:28;1.83;;;1.55;;
25079;SDS011;13071;48.868;9.996;2023-03-23T02:42:59;3.75;;;1.58;;
25079;SDS011;13071;48.868;9.996;2023-03-23T02:45:28;1.83;;;1.30;;
25079;SDS011;13071;48.868;9.996;2023-03-23T02:47:57;1.58;;;1.48;;
25079;SDS011;13071;48.868;9.996;2023-03-23T02:50:29;1.52;;;1.42;;
25079;SDS011;13071;48.868;9.996;2023-03-23T02:52:57;3.22;;;1.77;;
25079;SDS011;13071;48.868;9.996;2023-03-23T02:55:26;1.70;;;1.35;;
25079;SDS011;13071;48.868;9.996;2023-03-23T02:57:55;2.40;;;1.50;;
25079;SDS011;13071;48.868;9.996;2023-03-23T03:00:22;1.55;;;1.45;;
25079;SDS011;13071;48.868;9.996;2023-03-23T03:02:49;1.70;;;1.60;;
25079;SDS011;13071;48.868;9.996;2023-03-23T03:05:21;1.73;;;1.50;;
25079;SDS011;13071;48.868;9.996;2023-03-23T03:08:02;2.78;;;1.60;;
25079;SDS011;13071;48.868;9.996;2023-03-23T03:10:42;1.30;;;1.20;;
25079;SDS011;13071;48.868;9.996;2023-03-23T03:13:14;1.40;;;1.23;;
25079;SDS011;13071;48.868;9.996;2023-03-23T03:15:49;1.40;;;1.23;;
25079;SDS011;13071;48.868;9.996;2023-03-23T03:18:23;2.35;;;1.40;;
25079;SDS011;13071;48.868;9.996;2023-03-23T03:20:53;1.65;;;1.52;;
25079;SDS011;13071;48.868;9.996;2023-03-23T03:23:25;1.80;;;1.30;;
25079;SDS011;13071;48.868;9.996;2023-03-23T03:25:54;1.33;;;1.23;;
25079;SDS011;13071;48.868;9.996;2023-03-23T03:28:23;2.47;;;1.50;;
25079;SDS011;13071;48.868;9.996;2023-03-23T03:30:52;1.50;;;1.40;;
25079;SDS011;13071;48.868;9.996;2023-03-23T03:33:20;1.83;;;1.67;;
25079;SDS011;13071;48.868;9.996;2023-03-23T03:35:50;2.90;;;1.45;;
25079;SDS011;13071;48.868;9.996;2023-03-23T03:38:18;1.38;;;1.20;;
25079;SDS011;13071;48.868;9.996;2023-03-23T03:40:46;1.63;;;1.33;;
25079;SDS011;13071;48.868;9.996;2023-03-23T03:43:12;1.75;;;1.48;;
25079;SDS011;13071;48.868;9.996;2023-03-23T03:45:39;1.50;;;1.40;;
25079;SDS011;13071;48.868;9.996;2023-03-23T03:48:07;3.97;;;1.40;;
25079;SDS011;13071;48.868;9.996;2023-03-23T03:50:33;2.53;;;1.35;;
25079;SDS011;13071;48.868;9.996;2023-03-23T03:53:00;1.40;;;1.30;;
25079;SDS011;13071;48.868;9.996;2023-03-23T03:55:27;3.67;;;1.30;;
25079;SDS011;13071;48.868;9.996;2023-03-23T03:57:55;1.50;;;1.17;;
25079;SDS011;13071;48.868;9.996;2023-03-23T04:00:22;1.73;;;1.50;;
25079;SDS011;13071;48.868;9.996;2023-03-23T04:02:49;1.58;;;1.48;;
25079;SDS011;13071;48.868;9.996;2023-03-23T04:05:19;2.53;;;1.58;;
25079;SDS011;13071;48.868;9.996;2023-03-23T04:07:46;1.42;;;1.33;;
25079;SDS011;13071;48.868;9.996;2023-03-23T04:10:16;1.15;;;1.15;;
25079;SDS011;13071;48.868;9.996;2023-03-23T04:12:44;1.92;;;1.40;;
25079;SDS011;13071;48.868;9.996;2023-03-23T04:15:13;2.75;;;1.20;;
25079;SDS011;13071;48.868;9.996;2023-03-23T04:17:39;1.50;;;1.40;;
25079;SDS011;13071;48.868;9.996;2023-03-23T04:20:07;2.10;;;1.33;;
25079;SDS011;13071;48.868;9.996;2023-03-23T04:22:40;2.50;;;1.33;;
25079;SDS011;13071;48.868;9.996;2023-03-23T04:25:09;1.38;;;1.27;;
25079;SDS011;13071;48.868;9.996;2023-03-23T04:27:37;1.65;;;1.40;;
25079;SDS011;13071;48.868;9.996;2023-03-23T04:30:04;2.88;;;1.30;;
25079;SDS011;13071;48.868;9.996;2023-03-23T04:32:33;1.17;;;1.08;;
25079;SDS011;13071;48.868;9.996;2023-03-23T04:35:00;2.10;;;1.20;;
25079;SDS011;13071;48.868;9.996;2023-03-23T04:37:27;1.30;;;1.20;;
25079;SDS011;13071;48.868;9.996;2023-03-23T04:39:55;1.23;;;1.17;;
25079;SDS011;13071;48.868;9.996;2023-03-23T04:42:25;4.13;;;1.60;;
25079;SDS011;13071;48.868;9.996;2023-03-23T04:44:53;1.58;;;1.20;;
25079;SDS011;13071;48.868;9.996;2023-03-23T04:47:20;1.40;;;1.30;;
25079;SDS011;13071;48.868;9.996;2023-03-23T04:49:48;1.23;;;1.13;;
25079;SDS011;13071;48.868;9.996;2023-03-23T04:52:15;3.80;;;1.30;;
25079;SDS011;13071;48.868;9.996;2023-03-23T04:54:42;1.25;;;1.15;;
25079;SDS011;13071;48.868;9.996;2023-03-23T04:57:09;1.80;;;1.23;;
25079;SDS011;13071;48.868;9.996;2023-03-23T04:59:37;3.25;;;1.10;;
25079;SDS011;13071;48.868;9.996;2023-03-23T05:02:04;2.00;;;1.35;;
25079;SDS011;13071;48.868;9.996;2023-03-23T05:04:30;2.17;;;1.23;;
25079;SDS011;13071;48.868;9.996;2023-03-23T05:06:59;2.30;;;1.08;;
25079;SDS011;13071;48.868;9.996;2023-03-23T05:09:26;0.93;;;0.93;;
25079;SDS011;13071;48.868;9.996;2023-03-23T05:11:52;7.03;;;1.35;;
25079;SDS011;13071;48.868;9.996;2023-03-23T05:14:19;1.73;;;1.40;;
25079;SDS011;13071;48.868;9.996;2023-03-23T05:16:46;1.00;;;1.00;;
25079;SDS011;13071;48.868;9.996;2023-03-23T05:19:13;1.10;;;1.10;;
25079;SDS011;13071;48.868;9.996;2023-03-23T05:21:40;1.38;;;1.27;;
25079;SDS011;13071;48.868;9.996;2023-03-23T05:24:08;1.30;;;1.20;;
25079;SDS011;13071;48.868;9.996;2023-03-23T05:26:35;1.50;;;1.20;;
25079;SDS011;13071;48.868;9.996;2023-03-23T05:29:01;1.55;;;1.42;;
25079;SDS011;13071;48.868;9.996;2023-03-23T05:31:28;1.63;;;1.23;;
25079;SDS011;13071;48.868;9.996;2023-03-23T05:33:55;2.90;;;1.25;;
25079;SDS011;13071;48.868;9.996;2023-03-23T05:36:22;2.58;;;1.08;;
25079;SDS011;13071;48.868;9.996;2023-03-23T05:38:50;3.28;;;1.50;;
25079;SDS011;13071;48.868;9.996;2023-03-23T05:41:18;4.68;;;1.70;;
25079;SDS011;13071;48.868;9.996;2023-03-23T05:43:46;1.67;;;1.35;;
25079;SDS011;13071;48.868;9.996;2023-03-23T05:46:12;4.00;;;1.40;;
25079;SDS011;13071;48.868;9.996;2023-03-23T05:48:39;1.25;;;1.15;;
25079;SDS011;13071;48.868;9.996;2023-03-23T05:51:06;2.70;;;1.30;;
25079;SDS011;13071;48.868;9.996;2023-03-23T05:53:33;1.55;;;1.45;;
25079;SDS011;13071;48.868;9.996;2023-03-23T05:56:00;3.90;;;1.70;;
25079;SDS011;13071;48.868;9.996;2023-03-23T05:58:29;2.90;;;1.65;;
25079;SDS011;13071;48.868;9.996;2023-03-23T06:00:56;1.10;;;1.10;;
25079;SDS011;13071;48.868;9.996;2023-03-23T06:03:23;3.00;;;1.40;;
25079;SDS011;13071;48.868;9.996;2023-03-23T06:05:49;1.58;;;1.30;;
25079;SDS011;13071;48.868;9.996;2023-03-23T06:08:17;1.55;;;1.15;;
25079;SDS011;13071;48.868;9.996;2023-03-23T06:10:44;1.63;;;1.33;;
25079;SDS011;13071;48.868;9.996;2023-03-23T06:13:10;2.38;;;1.40;;
25079;SDS011;13071;48.868;9.996;2023-03-23T06:15:38;1.23;;;1.23;;
25079;SDS011;13071;48.868;9.996;2023-03-23T06:18:05;1.83;;;1.40;;
25079;SDS011;13071;48.868;9.996;2023-03-23T06:20:31;1.50;;;1.40;;
25079;SDS011;13071;48.868;9.996;2023-03-23T06:23:00;1.48;;;1.38;;
25079;SDS011;13071;48.868;9.996;2023-03-23T06:25:28;1.30;;;1.20;;
25079;SDS011;13071;48.868;9.996;2023-03-23T06:27:54;1.50;;;1.40;;
25079;SDS011;13071;48.868;9.996;2023-03-23T06:30:21;1.70;;;1.30;;
25079;SDS011;13071;48.868;9.996;2023-03-23T06:32:49;1.95;;;1.42;;
25079;SDS011;13071;48.868;9.996;2023-03-23T06:35:16;1.85;;;1.67;;
25079;SDS011;13071;48.868;9.996;2023-03-23T06:37:42;1.20;;;1.10;;
25079;SDS011;13071;48.868;9.996;2023-03-23T06:40:09;1.35;;;1.25;;
25079;SDS011;13071;48.868;9.996;2023-03-23T06:42:36;1.30;;;1.30;;
25079;SDS011;13071;48.868;9.996;2023-03-23T06:45:03;1.35;;;1.25;;
25079;SDS011;13071;48.868;9.996;2023-03-23T06:47:32;6.00;;;1.90;;
25079;SDS011;13071;48.868;9.996;2023-03-23T06:50:00;3.65;;;1.30;;
25079;SDS011;13071;48.868;9.996;2023-03-23T06:52:27;1.52;;;1.33;;
25079;SDS011;13071;48.868;9.996;2023-03-23T06:54:53;2.05;;;1.45;;
25079;SDS011;13071;48.868;9.996;2023-03-23T06:57:20;2.28;;;1.70;;
25079;SDS011;13071;48.868;9.996;2023-03-23T06:59:47;1.95;;;1.70;;
25079;SDS011;13071;48.868;9.996;2023-03-23T07:02:14;2.75;;;1.63;;
25079;SDS011;13071;48.868;9.996;2023-03-23T07:04:41;2.65;;;1.80;;
25079;SDS011;13071;48.868;9.996;2023-03-23T07:07:09;2.53;;;1.80;;
25079;SDS011;13071;48.868;9.996;2023-03-23T07:09:39;3.30;;;2.03;;
25079;SDS011;13071;48.868;9.996;2023-03-23T07:12:06;2.70;;;1.80;;
25079;SDS011;13071;48.868;9.996;2023-03-23T07:14:32;1.45;;;1.35;;
25079;SDS011;13071;48.868;9.996;2023-03-23T07:16:59;5.03;;;1.42;;
25079;SDS011;13071;48.868;9.996;2023-03-23T07:19:26;2.85;;;1.70;;
25079;SDS011;13071;48.868;9.996;2023-03-23T07:21:53;2.65;;;1.92;;
25079;SDS011;13071;48.868;9.996;2023-03-23T07:24:21;2.50;;;1.70;;
25079;SDS011;13071;48.868;9.996;2023-03-23T07:26:47;2.13;;;1.33;;
25079;SDS011;13071;48.868;9.996;2023-03-23T07:29:14;2.22;;;1.63;;
25079;SDS011;13071;48.868;9.996;2023-03-23T07:31:41;5.70;;;2.00;;
25079;SDS011;13071;48.868;9.996;2023-03-23T07:34:07;2.10;;;1.60;;
25079;SDS011;13071;48.868;9.996;2023-03-23T07:36:34;2.70;;;1.60;;
25079;SDS011;13071;48.868;9.996;2023-03-23T07:39:02;3.22;;;1.45;;
25079;SDS011;13071;48.868;9.996;2023-03-23T07:41:32;2.70;;;1.35;;
25079;SDS011;13071;48.868;9.996;2023-03-23T07:43:58;2.00;;;1.33;;
25079;SDS011;13071;48.868;9.996;2023-03-23T07:46:25;2.17;;;1.88;;
25079;SDS011;13071;48.868;9.996;2023-03-23T07:48:51;1.73;;;1.63;;
25079;SDS011;13071;48.868;9.996;2023-03-23T07:51:18;1.80;;;1.70;;
25079;SDS011;13071;48.868;9.996;2023-03-23T07:53:45;2.05;;;1.48;;
25079;SDS011;13071;48.868;9.996;2023-03-23T07:56:12;3.78;;;1.65;;
25079;SDS011;13071;48.868;9.996;2023-03-23T07:58:41;1.42;;;1.33;;
25079;SDS011;13071;48.868;9.996;2023-03-23T08:01:09;1.63;;;1.48;;
25079;SDS011;13071;48.868;9.996;2023-03-23T08:03:36;4.50;;;1.77;;
25079;SDS011;13071;48.868;9.996;2023-03-23T08:06:03;4.90;;;1.60;;
25079;SDS011;13071;48.868;9.996;2023-03-23T08:08:30;2.33;;;1.42;;
25079;SDS011;13071;48.868;9.996;2023-03-23T08:10:58;2.40;;;1.75;;
25079;SDS011;13071;48.868;9.996;2023-03-23T08:13:25;1.50;;;1.40;;
25079;SDS011;13071;48.868;9.996;2023-03-23T08:15:52;5.13;;;2.03;;
25079;SDS011;13071;48.868;9.996;2023-03-23T08:18:19;5.63;;;2.47;;
25079;SDS011;13071;48.868;9.996;2023-03-23T08:20:46;4.05;;;2.10;;
25079;SDS011;13071;48.868;9.996;2023-03-23T08:23:13;2.00;;;1.80;;
25079;SDS011;13071;48.868;9.996;2023-03-23T08:25:41;3.33;;;1.90;;
25079;SDS011;13071;48.868;9.996;2023-03-23T08:28:08;4.10;;;1.95;;
25079;SDS011;13071;48.868;9.996;2023-03-23T08:30:35;2.97;;;1.73;;
25079;SDS011;13071;48.868;9.996;2023-03-23T08:33:06;3.90;;;1.67;;
25079;SDS011;13071;48.868;9.996;2023-03-23T08:35:35;3.53;;;2.03;;
25079;SDS011;13071;48.868;9.996;2023-03-23T08:38:02;2.05;;;1.73;;
25079;SDS011;13071;48.868;9.996;2023-03-23T08:40:29;1.80;;;1.38;;
25079;SDS011;13071;48.868;9.996;2023-03-23T08:42:57;2.53;;;1.48;;
25079;SDS011;13071;48.868;9.996;2023-03-23T08:45:24;1.67;;;1.50;;
25079;SDS011;13071;48.868;9.996;2023-03-23T08:47:51;2.50;;;1.80;;
25079;SDS011;13071;48.868;9.996;2023-03-23T08:50:22;3.47;;;1.80;;
25079;SDS011;13071;48.868;9.996;2023-03-23T08:52:51;5.18;;;2.10;;
25079;SDS011;13071;48.868;9.996;2023-03-23T08:55:18;2.03;;;1.63;;
25079;SDS011;13071;48.868;9.996;2023-03-23T08:57:45;3.47;;;1.60;;
25079;SDS011;13071;48.868;9.996;2023-03-23T09:00:13;2.05;;;1.45;;
25079;SDS011;13071;48.868;9.996;2023-03-23T09:02:43;1.92;;;1.70;;
25079;SDS011;13071;48.868;9.996;2023-03-23T09:05:10;2.47;;;1.63;;
25079;SDS011;13071;48.868;9.996;2023-03-23T09:07:40;1.60;;;1.40;;
25079;SDS011;13071;48.868;9.996;2023-03-23T09:10:08;1.67;;;1.52;;
25079;SDS011;13071;48.868;9.996;2023-03-23T09:12:35;1.73;;;1.63;;
25079;SDS011;13071;48.868;9.996;2023-03-23T09:15:02;1.90;;;1.40;;
25079;SDS011;13071;48.868;9.996;2023-03-23T09:17:34;3.33;;;1.52;;
25079;SDS011;13071;48.868;9.996;2023-03-23T09:20:01;3.05;;;2.00;;
25079;SDS011;13071;48.868;9.996;2023-03-23T09:22:32;1.60;;;1.50;;
25079;SDS011;13071;48.868;9.996;2023-03-23T09:25:00;2.33;;;1.60;;
25079;SDS011;13071;48.868;9.996;2023-03-23T09:27:26;1.40;;;1.30;;
25079;SDS011;13071;48.868;9.996;2023-03-23T09:29:53;3.83;;;1.70;;
25079;SDS011;13071;48.868;9.996;2023-03-23T09:32:20;1.60;;;1.50;;
25079;SDS011;13071;48.868;9.996;2023-03-23T09:34:47;3.05;;;2.03;;
25079;SDS011;13071;48.868;9.996;2023-03-23T09:37:14;2.13;;;1.80;;
25079;SDS011;13071;48.868;9.996;2023-03-23T09:39:41;6.82;;;1.58;;
25079;SDS011;13071;48.868;9.996;2023-03-23T09:42:14;8.52;;;1.90;;
25079;SDS011;13071;48.868;9.996;2023-03-23T09:44:56;1.60;;;1.50;;
25079;SDS011;13071;48.868;9.996;2023-03-23T09:47:30;2.75;;;1.80;;
25079;SDS011;13071;48.868;9.996;2023-03-23T09:50:02;2.40;;;1.63;;
25079;SDS011;13071;48.868;9.996;2023-03-23T09:52:36;3.80;;;1.60;;
25079;SDS011;13071;48.868;9.996;2023-03-23T09:55:07;1.83;;;1.63;;
25079;SDS011;13071;48.868;9.996;2023-03-23T09:57:38;2.35;;;1.70;;
25079;SDS011;13071;48.868;9.996;2023-03-23T10:00:12;3.10;;;1.67;;
25079;SDS011;13071;48.868;9.996;2023-03-23T10:02:45;2.33;;;2.10;;
25079;SDS011;13071;48.868;9.996;2023-03-23T10:05:29;5.05;;;2.00;;
25079;SDS011;13071;48.868;9.996;2023-03-23T10:07:59;2.67;;;1.58;;
25079;SDS011;13071;48.868;9.996;2023-03-23T10:10:29;4.75;;;1.88;;
25079;SDS011;13071;48.868;9.996;2023-03-23T10:13:06;2.85;;;1.80;;
25079;SDS011;13071;48.868;9.996;2023-03-23T10:15:41;4.13;;;1.85;;
25079;SDS011;13071;48.868;9.996;2023-03-23T10:18:11;1.42;;;1.38;;
25079;SDS011;13071;48.868;9.996;2023-03-23T10:20:43;2.55;;;1.70;;
25079;SDS011;13071;48.868;9.996;2023-03-23T10:23:24;5.10;;;2.40;;
25079;SDS011;13071;48.868;9.996;2023-03-23T10:26:07;1.75;;;1.50;;
25079;SDS011;13071;48.868;9.996;2023-03-23T10:28:41;2.40;;;1.83;;
25079;SDS011;13071;48.868;9.996;2023-03-23T10:31:09;2.60;;;1.67;;
25079;SDS011;13071;48.868;9.996;2023-03-23T10:33:39;1.50;;;1.40;;
25079;SDS011;13071;48.868;9.996;2023-03-23T10:36:09;2.13;;;1.88;;
25079;SDS011;13071;48.868;9.996;2023-03-23T10:38:40;4.25;;;2.40;;
25079;SDS011;13071;48.868;9.996;2023-03-23T10:41:11;3.65;;;2.92;;
25079;SDS011;13071;48.868;9.996;2023-03-23T10:43:41;6.68;;;3.47;;
25079;SDS011;13071;48.868;9.996;2023-03-23T10:46:11;8.45;;;3.67;;
25079;SDS011;13071;48.868;9.996;2023-03-23T10:48:47;15.55;;;6.47;;
25079;SDS011;13071;48.868;9.996;2023-03-23T10:51:16;7.65;;;3.53;;
25079;SDS011;13071;48.868;9.996;2023-03-23T10:53:49;4.45;;;2.78;;
25079;SDS011;13071;48.868;9.996;2023-03-23T10:56:21;2.75;;;1.80;;
25079;SDS011;13071;48.868;9.996;2023-03-23T10:58:51;2.35;;;1.85;;
25079;SDS011;13071;48.868;9.996;2023-03-23T11:01:18;1.77;;;1.67;;
25079;SDS011;13071;48.868;9.996;2023-03-23T11:03:53;1.73;;;1.63;;
25079;SDS011;13071;48.868;9.996;2023-03-23T11:06:20;2.00;;;1.85;;
25079;SDS011;13071;48.868;9.996;2023-03-23T11:08:51;5.05;;;1.70;;
25079;SDS011;13071;48.868;9.996;2023-03-23T11:11:21;3.20;;;1.70;;
25079;SDS011;13071;48.868;9.996;2023-03-23T11:13:57;6.38;;;3.13;;
25079;SDS011;13071;48.868;9.996;2023-03-23T11:16:26;4.80;;;2.70;;
25079;SDS011;13071;48.868;9.996;2023-03-23T11:18:54;3.67;;;2.03;;
25079;SDS011;13071;48.868;9.996;2023-03-23T11:21:22;6.32;;;2.33;;
25079;SDS011;13071;48.868;9.996;2023-03-23T11:23:53;3.38;;;2.10;;
25079;SDS011;13071;48.868;9.996;2023-03-23T11:26:23;1.95;;;1.80;;
25079;SDS011;13071;48.868;9.996;2023-03-23T11:28:52;2.25;;;1.50;;
25079;SDS011;13071;48.868;9.996;2023-03-23T11:31:24;1.60;;;1.50;;
25079;SDS011;13071;48.868;9.996;2023-03-23T11:33:56;3.60;;;1.52;;
25079;SDS011;13071;48.868;9.996;2023-03-23T11:36:28;1.65;;;1.52;;
25079;SDS011;13071;48.868;9.996;2023-03-23T11:38:57;2.10;;;1.55;;
25079;SDS011;13071;48.868;9.996;2023-03-23T11:41:24;1.90;;;1.40;;
25079;SDS011;13071;48.868;9.996;2023-03-23T11:44:03;2.97;;;1.50;;
25079;SDS011;13071;48.868;9.996;2023-03-23T11:46:39;2.03;;;1.58;;
25079;SDS011;13071;48.868;9.996;2023-03-23T11:49:15;1.33;;;1.30;;
25079;SDS011;13071;48.868;9.996;2023-03-23T11:51:51;2.22;;;1.55;;
25079;SDS011;13071;48.868;9.996;2023-03-23T11:54:24;2.67;;;1.90;;
25079;SDS011;13071;48.868;9.996;2023-03-23T11:56:58;2.38;;;1.90;;
25079;SDS011;13071;48.868;9.996;2023-03-23T11:59:28;2.28;;;1.80;;
25079;SDS011;13071;48.868;9.996;2023-03-23T12:02:00;2.92;;;1.65;;
25079;SDS011;13071;48.868;9.996;2023-03-23T12:04:42;1.58;;;1.48;;
25079;SDS011;13071;48.868;9.996;2023-03-23T12:07:36;3.08;;;1.88;;
25079;SDS011;13071;48.868;9.996;2023-03-23T12:10:22;2.15;;;1.95;;
25079;SDS011;13071;48.868;9.996;2023-03-23T12:12:56;1.75;;;1.48;;
25079;SDS011;13071;48.868;9.996;2023-03-23T12:15:33;2.15;;;1.42;;
25079;SDS011;13071;48.868;9.996;2023-03-23T12:18:09;2.38;;;1.60;;
25079;SDS011;13071;48.868;9.996;2023-03-23T12:20:49;3.95;;;2.05;;
25079;SDS011;13071;48.868;9.996;2023-03-23T12:23:25;2.67;;;1.95;;
25079;SDS011;13071;48.868;9.996;2023-03-23T12:28:54;10.20;;;2.25;;
25079;SDS011;13071;48.868;9.996;2023-03-23T12:31:32;2.85;;;1.80;;
25079;SDS011;13071;48.868;9.996;2023-03-23T12:34:07;2.22;;;1.85;;
25079;SDS011;13071;48.868;9.996;2023-03-23T12:36:50;2.38;;;1.90;;
25079;SDS011;13071;48.868;9.996;2023-03-23T12:42:37;2.00;;;1.80;;
25079;SDS011;13071;48.868;9.996;2023-03-23T12:45:14;5.63;;;1.88;;
25079;SDS011;13071;48.868;9.996;2023-03-23T12:47:49;3.25;;;1.90;;
25079;SDS011;13071;48.868;9.996;2023-03-23T12:50:21;4.32;;;1.90;;
25079;SDS011;13071;48.868;9.996;2023-03-23T12:52:53;5.35;;;2.85;;
25079;SDS011;13071;48.868;9.996;2023-03-23T12:55:25;2.00;;;1.80;;
25079;SDS011;13071;48.868;9.996;2023-03-23T12:57:59;3.40;;;1.90;;
25079;SDS011;13071;48.868;9.996;2023-03-23T13:00:30;3.50;;;2.03;;
25079;SDS011;13071;48.868;9.996;2023-03-23T13:03:02;2.78;;;1.50;;
25079;SDS011;13071;48.868;9.996;2023-03-23T13:05:38;3.05;;;1.90;;
25079;SDS011;13071;48.868;9.996;2023-03-23T13:08:12;1.90;;;1.80;;
25079;SDS011;13071;48.868;9.996;2023-03-23T13:10:45;3.17;;;1.92;;
25079;SDS011;13071;48.868;9.996;2023-03-23T13:13:16;1.80;;;1.65;;
25079;SDS011;13071;48.868;9.996;2023-03-23T13:15:48;1.95;;;1.50;;
25079;SDS011;13071;48.868;9.996;2023-03-23T13:18:23;2.15;;;1.95;;
25079;SDS011;13071;48.868;9.996;2023-03-23T13:21:02;1.70;;;1.60;;
25079;SDS011;13071;48.868;9.996;2023-03-23T13:23:35;2.25;;;1.77;;
25079;SDS011;13071;48.868;9.996;2023-03-23T13:26:06;2.95;;;1.58;;
25079;SDS011;13071;48.868;9.996;2023-03-23T13:28:45;1.58;;;1.38;;
25079;SDS011;13071;48.868;9.996;2023-03-23T13:31:19;1.92;;;1.70;;
25079;SDS011;13071;48.868;9.996;2023-03-23T13:33:51;1.67;;;1.55;;
25079;SDS011;13071;48.868;9.996;2023-03-23T13:36:26;2.30;;;1.48;;
25079;SDS011;13071;48.868;9.996;2023-03-23T13:38:55;1.90;;;1.80;;
25079;SDS011;13071;48.868;9.996;2023-03-23T13:41:25;2.25;;;2.05;;
25079;SDS011;13071;48.868;9.996;2023-03-23T13:43:52;1.90;;;1.50;;
25079;SDS011;13071;48.868;9.996;2023-03-23T13:46:31;1.77;;;1.67;;
25079;SDS011;13071;48.868;9.996;2023-03-23T13:49:04;2.28;;;1.90;;
25079;SDS011;13071;48.868;9.996;2023-03-23T13:51:58;3.95;;;1.85;;
25079;SDS011;13071;48.868;9.996;2023-03-23T13:54:30;3.63;;;1.90;;
25079;SDS011;13071;48.868;9.996;2023-03-23T13:56:58;2.30;;;1.83;;
25079;SDS011;13071;48.868;9.996;2023-03-23T13:59:29;2.10;;;1.70;;
25079;SDS011;13071;48.868;9.996;2023-03-23T14:05:07;2.35;;;1.67;;
25079;SDS011;13071;48.868;9.996;2023-03-23T14:10:24;5.65;;;2.20;;
25079;SDS011;13071;48.868;9.996;2023-03-23T14:12:57;4.35;;;2.03;;
25079;SDS011;13071;48.868;9.996;2023-03-23T14:15:28;1.90;;;1.48;;
25079;SDS011;13071;48.868;9.996;2023-03-23T14:17:56;1.80;;;1.48;;
25079;SDS011;13071;48.868;9.996;2023-03-23T14:20:25;2.95;;;1.70;;
25079;SDS011;13071;48.868;9.996;2023-03-23T14:22:59;1.48;;;1.38;;
25079;SDS011;13071;48.868;9.996;2023-03-23T14:25:26;2.65;;;1.80;;
25079;SDS011;13071;48.868;9.996;2023-03-23T14:27:55;1.60;;;1.50;;
25079;SDS011;13071;48.868;9.996;2023-03-23T14:30:22;1.88;;;1.65;;
25079;SDS011;13071;48.868;9.996;2023-03-23T14:32:50;2.80;;;1.58;;
25079;SDS011;13071;48.868;9.996;2023-03-23T14:35:19;2.60;;;1.60;;
25079;SDS011;13071;48.868;9.996;2023-03-23T14:37:49;1.88;;;1.60;;
25079;SDS011;13071;48.868;9.996;2023-03-23T14:40:18;2.03;;;1.63;;
25079;SDS011;13071;48.868;9.996;2023-03-23T14:42:45;1.55;;;1.42;;
25079;SDS011;13071;48.868;9.996;2023-03-23T14:45:13;1.85;;;1.60;;
25079;SDS011;13071;48.868;9.996;2023-03-23T14:47:42;2.55;;;1.83;;
25079;SDS011;13071;48.868;9.996;2023-03-23T14:50:23;2.25;;;2.05;;
25079;SDS011;13071;48.868;9.996;2023-03-23T14:52:55;6.22;;;2.10;;
25079;SDS011;13071;48.868;9.996;2023-03-23T14:55:25;2.03;;;1.65;;
25079;SDS011;13071;48.868;9.996;2023-03-23T14:57:53;3.10;;;1.45;;
25079;SDS011;13071;48.868;9.996;2023-03-23T15:00:21;1.92;;;1.50;;
25079;SDS011;13071;48.868;9.996;2023-03-23T15:02:49;1.50;;;1.40;;
25079;SDS011;13071;48.868;9.996;2023-03-23T15:05:19;4.65;;;1.70;;
25079;SDS011;13071;48.868;9.996;2023-03-23T15:07:50;3.42;;;1.58;;
25079;SDS011;13071;48.868;9.996;2023-03-23T15:10:20;4.00;;;1.40;;
25079;SDS011;13071;48.868;9.996;2023-03-23T15:12:49;2.92;;;1.65;;
25079;SDS011;13071;48.868;9.996;2023-03-23T15:15:24;2.20;;;1.48;;
25079;SDS011;13071;48.868;9.996;2023-03-23T15:17:52;2.35;;;1.63;;